Time;durP1;ratioP1;P1;durP2;ratioP2;P2;SDS_P1;SDS_P2;PMS_P1;PMS_P2;Temp;Humidity;BMP_temperature;BMP_pressure;BME280_temperature;BME280_humidity;BME280_pressure;Samples;Min_cycle;Max_cycle;Signal;HPM_P1;HPM_P2
2022/06/23 00:00:45;;;;;;;2.50;2.30;;;;;;;;;;5013773;28;20520;-77
2022/06/23 00:03:18;;;;;;;2.60;2.38;;;;;;;;;;5012331;28;21205;-74
2022/06/23 00:05:49;;;;;;;3.85;2.40;;;;;;;;;;5016314;28;20961;-75
2022/06/23 00:08:17;;;;;;;4.07;2.50;;;;;;;;;;5012644;28;20439;-74
2022/06/23 00:10:47;;;;;;;2.55;2.20;;;;;;;;;;5013479;28;20423;-74
2022/06/23 00:13:15;;;;;;;2.35;2.15;;;;;;;;;;5015114;28;20434;-75
2022/06/23 00:15:43;;;;;;;2.67;2.47;;;;;;;;;;5013561;28;20453;-75
2022/06/23 00:18:17;;;;;;;2.42;2.22;;;;;;;;;;5017232;28;21004;-71
2022/06/23 00:20:46;;;;;;;2.78;2.58;;;;;;;;;;5016004;28;20743;-77
2022/06/23 00:23:15;;;;;;;3.10;2.30;;;;;;;;;;5017140;28;20434;-76
2022/06/23 00:25:48;;;;;;;3.05;2.20;;;;;;;;;;5014031;28;20916;-74
2022/06/23 00:28:18;;;;;;;2.92;2.40;;;;;;;;;;5013923;28;20438;-75
2022/06/23 00:30:46;;;;;;;2.50;2.30;;;;;;;;;;5013814;28;20449;-75
2022/06/23 00:33:17;;;;;;;2.50;2.25;;;;;;;;;;5021154;28;20434;-74
2022/06/23 00:35:44;;;;;;;2.60;2.40;;;;;;;;;;5017617;28;20453;-77
2022/06/23 00:38:19;;;;;;;2.78;2.38;;;;;;;;;;5015340;28;20525;-76
2022/06/23 00:40:47;;;;;;;2.70;2.50;;;;;;;;;;5017185;28;20445;-75
2022/06/23 00:43:15;;;;;;;2.35;2.15;;;;;;;;;;5018906;28;20434;-75
2022/06/23 00:45:46;;;;;;;2.40;2.20;;;;;;;;;;5016753;28;20430;-75
2022/06/23 00:48:16;;;;;;;3.95;2.60;;;;;;;;;;5014368;28;20564;-75
2022/06/23 00:50:47;;;;;;;2.47;2.28;;;;;;;;;;5020426;28;20456;-76
2022/06/23 00:53:21;;;;;;;2.60;2.20;;;;;;;;;;5018870;28;20480;-76
2022/06/23 00:55:54;;;;;;;2.90;2.60;;;;;;;;;;5016860;28;20430;-75
2022/06/23 00:58:28;;;;;;;2.63;2.42;;;;;;;;;;5018695;28;20796;-76
2022/06/23 01:00:59;;;;;;;2.72;2.53;;;;;;;;;;5014937;28;20427;-74
2022/06/23 01:03:29;;;;;;;2.70;2.50;;;;;;;;;;5011656;28;20447;-77
2022/06/23 01:05:58;;;;;;;5.13;2.65;;;;;;;;;;5018603;28;20906;-75
2022/06/23 01:08:29;;;;;;;2.60;2.40;;;;;;;;;;5023316;28;20449;-76
2022/06/23 01:10:59;;;;;;;2.47;2.27;;;;;;;;;;5019868;28;20541;-75
2022/06/23 01:13:30;;;;;;;2.35;2.15;;;;;;;;;;5019646;28;20427;-74
2022/06/23 01:16:00;;;;;;;2.50;2.30;;;;;;;;;;5018939;28;20924;-75
2022/06/23 01:18:31;;;;;;;2.63;2.25;;;;;;;;;;5020296;28;20457;-75
2022/06/23 01:21:00;;;;;;;4.30;2.50;;;;;;;;;;5019751;28;20438;-74
2022/06/23 01:23:54;;;;;;;2.70;2.30;;;;;;;;;;5020685;28;20445;-75
2022/06/23 01:26:42;;;;;;;2.60;2.35;;;;;;;;;;4979206;28;20866;-76
2022/06/23 01:29:13;;;;;;;2.78;2.50;;;;;;;;;;5016071;28;20541;-75
2022/06/23 01:31:44;;;;;;;3.10;2.40;;;;;;;;;;5017031;28;20442;-74
2022/06/23 01:34:18;;;;;;;2.60;2.40;;;;;;;;;;5018647;28;20438;-76
2022/06/23 01:36:48;;;;;;;2.65;2.45;;;;;;;;;;5018054;28;20930;-74
2022/06/23 01:39:17;;;;;;;2.85;2.55;;;;;;;;;;5018345;28;20909;-76
2022/06/23 01:41:48;;;;;;;2.40;2.20;;;;;;;;;;5018532;28;20434;-76
2022/06/23 01:44:20;;;;;;;2.70;2.50;;;;;;;;;;5015443;28;20443;-74
2022/06/23 01:46:49;;;;;;;2.50;2.30;;;;;;;;;;5019436;28;20434;-75
2022/06/23 01:49:19;;;;;;;2.50;2.30;;;;;;;;;;5020460;28;20447;-75
2022/06/23 01:51:49;;;;;;;2.40;2.20;;;;;;;;;;5016787;28;20743;-76
2022/06/23 01:54:18;;;;;;;2.70;2.50;;;;;;;;;;5019940;28;21017;-75
2022/06/23 01:56:54;;;;;;;3.00;2.40;;;;;;;;;;5018593;28;20466;-74
2022/06/23 01:59:28;;;;;;;3.90;2.90;;;;;;;;;;5016542;28;20427;-74
2022/06/23 02:01:59;;;;;;;3.70;2.50;;;;;;;;;;5016589;28;20441;-75
2022/06/23 02:04:32;;;;;;;4.00;2.90;;;;;;;;;;5009557;28;20441;-75
2022/06/23 02:07:03;;;;;;;2.80;2.60;;;;;;;;;;5022541;28;20438;-74
2022/06/23 02:09:33;;;;;;;3.00;2.70;;;;;;;;;;5018299;28;20453;-75
2022/06/23 02:12:01;;;;;;;3.00;2.40;;;;;;;;;;5017013;28;20909;-68
2022/06/23 02:14:43;;;;;;;2.50;2.30;;;;;;;;;;5016958;28;20439;-68
2022/06/23 02:17:17;;;;;;;2.58;2.38;;;;;;;;;;5013863;28;20438;-68
2022/06/23 02:19:46;;;;;;;3.13;2.50;;;;;;;;;;5016712;28;20528;-68
2022/06/23 02:22:18;;;;;;;2.90;2.58;;;;;;;;;;5019001;28;20434;-67
2022/06/23 02:24:47;;;;;;;2.70;2.50;;;;;;;;;;5016980;28;20482;-68
2022/06/23 02:27:17;;;;;;;2.78;2.38;;;;;;;;;;5016576;28;20430;-68
2022/06/23 02:29:47;;;;;;;2.90;2.55;;;;;;;;;;5015419;28;20493;-67
2022/06/23 02:32:17;;;;;;;2.95;2.10;;;;;;;;;;5020101;28;20522;-67
2022/06/23 02:34:47;;;;;;;3.00;2.53;;;;;;;;;;5013609;28;21067;-67
2022/06/23 02:37:33;;;;;;;4.25;2.60;;;;;;;;;;5015017;28;20438;-68
2022/06/23 02:40:00;;;;;;;2.60;2.40;;;;;;;;;;5015230;28;20530;-68
2022/06/23 02:42:29;;;;;;;2.40;2.20;;;;;;;;;;5017756;28;20442;-67
2022/06/23 02:45:06;;;;;;;2.67;2.47;;;;;;;;;;5016368;28;20435;-68
2022/06/23 02:47:43;;;;;;;2.80;2.60;;;;;;;;;;5015257;28;20443;-68
2022/06/23 02:50:17;;;;;;;3.00;2.30;;;;;;;;;;5009847;28;20431;-67
2022/06/23 02:52:54;;;;;;;2.40;2.20;;;;;;;;;;5017929;28;20920;-68
2022/06/23 02:55:30;;;;;;;2.95;2.40;;;;;;;;;;5013527;28;20441;-67
2022/06/23 02:58:00;;;;;;;2.70;2.20;;;;;;;;;;5014905;28;20851;-68
2022/06/23 03:00:32;;;;;;;4.70;2.20;;;;;;;;;;5014981;28;20478;-68
2022/06/23 03:03:04;;;;;;;3.28;2.20;;;;;;;;;;5014229;28;20458;-67
2022/06/23 03:05:36;;;;;;;2.60;2.40;;;;;;;;;;5014756;28;21182;-67
2022/06/23 03:08:06;;;;;;;2.90;2.20;;;;;;;;;;5013350;28;20478;-67
2022/06/23 03:10:36;;;;;;;2.90;2.47;;;;;;;;;;5014993;28;20780;-67
2022/06/23 03:13:07;;;;;;;2.53;2.20;;;;;;;;;;5016217;28;20434;-68
2022/06/23 03:15:36;;;;;;;2.50;2.30;;;;;;;;;;5014646;28;20431;-68
2022/06/23 03:18:08;;;;;;;2.47;2.28;;;;;;;;;;5016778;28;20452;-68
2022/06/23 03:20:39;;;;;;;2.80;2.50;;;;;;;;;;5016048;28;20513;-68
2022/06/23 03:23:11;;;;;;;2.72;2.10;;;;;;;;;;5014061;28;20531;-67
2022/06/23 03:25:41;;;;;;;2.92;2.40;;;;;;;;;;5014245;28;20466;-68
2022/06/23 03:28:12;;;;;;;2.42;2.22;;;;;;;;;;5016613;28;20469;-67
2022/06/23 03:30:41;;;;;;;2.40;2.25;;;;;;;;;;5012150;28;20448;-68
2022/06/23 03:33:14;;;;;;;3.13;2.30;;;;;;;;;;5017447;28;20936;-67
2022/06/23 03:35:45;;;;;;;2.95;2.40;;;;;;;;;;5012339;28;20918;-68
2022/06/23 03:38:16;;;;;;;2.70;2.50;;;;;;;;;;5016209;28;20430;-67
2022/06/23 03:43:38;;;;;;;3.70;2.60;;;;;;;;;;5013716;28;20414;-65
2022/06/23 03:46:08;;;;;;;3.00;2.60;;;;;;;;;;5016987;28;20439;-65
2022/06/23 03:48:39;;;;;;;2.88;2.60;;;;;;;;;;5016419;28;20442;-64
2022/06/23 03:51:10;;;;;;;2.60;2.40;;;;;;;;;;5017018;28;20935;-66
2022/06/23 03:53:42;;;;;;;4.10;2.50;;;;;;;;;;5015010;28;20450;-66
2022/06/23 03:56:11;;;;;;;2.78;2.38;;;;;;;;;;5015526;28;20442;-66
2022/06/23 03:58:42;;;;;;;2.63;2.35;;;;;;;;;;5017650;28;20846;-65
2022/06/23 04:01:17;;;;;;;3.35;2.30;;;;;;;;;;5011684;28;21061;-66
2022/06/23 04:03:47;;;;;;;2.78;2.45;;;;;;;;;;5015169;28;20439;-67
2022/06/23 04:06:32;;;;;;;2.65;2.30;;;;;;;;;;5014598;28;20907;-68
2022/06/23 04:09:01;;;;;;;3.35;2.65;;;;;;;;;;5015611;28;20448;-67
2022/06/23 04:11:46;;;;;;;2.95;2.65;;;;;;;;;;5020476;28;20431;-67
2022/06/23 04:14:16;;;;;;;2.92;2.40;;;;;;;;;;5011907;28;21018;-68
2022/06/23 04:16:44;;;;;;;2.40;2.20;;;;;;;;;;5020225;28;20520;-68
2022/06/23 04:19:17;;;;;;;3.55;2.70;;;;;;;;;;5019900;28;20431;-70
2022/06/23 04:21:46;;;;;;;2.50;2.20;;;;;;;;;;5022043;28;20434;-69
2022/06/23 04:24:16;;;;;;;5.38;2.67;;;;;;;;;;5021486;28;21118;-69
2022/06/23 04:26:45;;;;;;;4.07;2.70;;;;;;;;;;5020688;28;20443;-69
2022/06/23 04:29:13;;;;;;;6.60;3.10;;;;;;;;;;5021282;28;20489;-68
2022/06/23 04:31:41;;;;;;;3.63;2.90;;;;;;;;;;5014923;28;20899;-69
2022/06/23 04:34:19;;;;;;;3.78;3.10;;;;;;;;;;5023291;28;20880;-70
2022/06/23 04:36:47;;;;;;;3.40;2.70;;;;;;;;;;5017841;28;20430;-68
2022/06/23 04:39:19;;;;;;;4.20;2.67;;;;;;;;;;5019573;28;20440;-69
2022/06/23 04:41:49;;;;;;;4.70;2.70;;;;;;;;;;5016444;28;20820;-69
2022/06/23 04:44:18;;;;;;;3.00;2.70;;;;;;;;;;5019769;28;20457;-69
2022/06/23 04:46:46;;;;;;;4.47;2.90;;;;;;;;;;5016734;28;20461;-74
2022/06/23 04:49:19;;;;;;;3.38;2.45;;;;;;;;;;5013167;28;20943;-68
2022/06/23 04:51:48;;;;;;;3.53;2.90;;;;;;;;;;5015825;28;20431;-69
2022/06/23 04:54:17;;;;;;;3.25;2.40;;;;;;;;;;5019205;28;20457;-70
2022/06/23 04:56:46;;;;;;;2.85;2.55;;;;;;;;;;5022288;28;20912;-69
2022/06/23 04:59:18;;;;;;;3.60;2.50;;;;;;;;;;5020430;28;20447;-69
2022/06/23 05:01:48;;;;;;;2.80;2.30;;;;;;;;;;5016430;28;20510;-70
2022/06/23 05:04:19;;;;;;;3.20;2.85;;;;;;;;;;5016406;28;20488;-69
2022/06/23 05:06:47;;;;;;;3.55;3.08;;;;;;;;;;5019075;28;20446;-65
2022/06/23 05:09:20;;;;;;;3.00;2.80;;;;;;;;;;5015940;28;21253;-66
2022/06/23 05:11:48;;;;;;;4.85;2.80;;;;;;;;;;5021797;28;20434;-67
2022/06/23 05:14:19;;;;;;;4.70;3.35;;;;;;;;;;5017919;28;21042;-67
2022/06/23 05:16:47;;;;;;;3.60;2.50;;;;;;;;;;5015658;28;20435;-67
2022/06/23 05:19:20;;;;;;;2.80;2.60;;;;;;;;;;5013860;28;20444;-65
2022/06/23 05:21:49;;;;;;;5.73;3.00;;;;;;;;;;5017138;28;20438;-65
2022/06/23 05:24:17;;;;;;;3.38;3.00;;;;;;;;;;5017931;28;20426;-64
2022/06/23 05:26:47;;;;;;;3.30;3.10;;;;;;;;;;5013165;28;20438;-65
2022/06/23 05:29:17;;;;;;;2.70;2.50;;;;;;;;;;5014512;28;20487;-65
2022/06/23 05:31:46;;;;;;;5.93;2.60;;;;;;;;;;5021039;28;20640;-67
2022/06/23 05:34:15;;;;;;;2.73;2.53;;;;;;;;;;5019463;28;20430;-66
2022/06/23 05:36:47;;;;;;;4.23;2.80;;;;;;;;;;5019246;28;20445;-67
2022/06/23 05:39:16;;;;;;;4.13;3.10;;;;;;;;;;5017771;28;20450;-66
2022/06/23 05:41:45;;;;;;;4.90;3.10;;;;;;;;;;5019397;28;20431;-65
2022/06/23 05:44:16;;;;;;;3.88;3.42;;;;;;;;;;5020448;28;20433;-67
2022/06/23 05:46:43;;;;;;;4.20;3.63;;;;;;;;;;5022110;28;20427;-65
2022/06/23 05:49:14;;;;;;;3.33;3.03;;;;;;;;;;5020293;28;20431;-66
2022/06/23 05:51:46;;;;;;;3.42;3.13;;;;;;;;;;5018714;28;20475;-64
2022/06/23 05:54:20;;;;;;;3.85;3.22;;;;;;;;;;5019472;28;20441;-65
2022/06/23 05:56:50;;;;;;;4.20;3.00;;;;;;;;;;5019345;28;20427;-66
2022/06/23 05:59:21;;;;;;;4.13;2.40;;;;;;;;;;5020341;28;20438;-66
2022/06/23 06:01:52;;;;;;;3.60;2.90;;;;;;;;;;5018781;28;20457;-66
2022/06/23 06:04:21;;;;;;;3.60;2.90;;;;;;;;;;5020790;28;20873;-65
2022/06/23 06:06:49;;;;;;;2.80;2.60;;;;;;;;;;5019257;28;20466;-66
2022/06/23 06:09:40;;;;;;;4.70;2.80;;;;;;;;;;5016275;28;20441;-66
2022/06/23 06:12:08;;;;;;;3.20;2.83;;;;;;;;;;5019350;28;20434;-65
2022/06/23 06:14:39;;;;;;;3.40;3.10;;;;;;;;;;5020245;28;20437;-67
2022/06/23 06:17:07;;;;;;;4.13;2.70;;;;;;;;;;5015051;28;20502;-66
2022/06/23 06:19:35;;;;;;;4.65;2.90;;;;;;;;;;5037105;23;21117;-63
2022/06/23 06:22:14;;;;;;;3.10;2.90;;;;;;;;;;5044062;28;20934;-64
2022/06/23 06:24:44;;;;;;;3.72;3.30;;;;;;;;;;5045757;28;20425;-63
2022/06/23 06:27:13;;;;;;;3.53;3.13;;;;;;;;;;5043866;28;20433;-63
2022/06/23 06:29:41;;;;;;;4.53;2.80;;;;;;;;;;5039267;28;20448;-65
2022/06/23 06:32:17;;;;;;;4.82;3.20;;;;;;;;;;5045996;28;20559;-65
2022/06/23 06:34:47;;;;;;;4.20;3.13;;;;;;;;;;5041934;28;20931;-64
2022/06/23 06:37:15;;;;;;;5.55;3.33;;;;;;;;;;5044133;28;20436;-64
2022/06/23 06:39:46;;;;;;;4.03;3.20;;;;;;;;;;5043286;28;20436;-65
2022/06/23 06:42:15;;;;;;;3.50;3.20;;;;;;;;;;5045275;28;20425;-65
2022/06/23 06:44:43;;;;;;;3.57;3.23;;;;;;;;;;5043646;28;20469;-64
2022/06/23 06:47:17;;;;;;;4.22;3.30;;;;;;;;;;5038823;28;20450;-65
2022/06/23 06:49:44;;;;;;;6.45;3.50;;;;;;;;;;5044978;28;20437;-66
2022/06/23 06:52:12;;;;;;;4.50;3.10;;;;;;;;;;5045401;28;20504;-65
2022/06/23 06:54:41;;;;;;;4.55;3.35;;;;;;;;;;5044116;28;20445;-64
2022/06/23 06:57:14;;;;;;;5.22;3.20;;;;;;;;;;5045119;28;20425;-64
2022/06/23 06:59:45;;;;;;;5.60;3.50;;;;;;;;;;5041747;28;20437;-64
2022/06/23 07:02:15;;;;;;;4.75;3.22;;;;;;;;;;5044480;28;20431;-64
2022/06/23 07:04:45;;;;;;;5.43;3.70;;;;;;;;;;5046145;28;20799;-64
2022/06/23 07:07:14;;;;;;;4.60;3.70;;;;;;;;;;5039428;28;20452;-64
2022/06/23 07:09:44;;;;;;;4.03;3.63;;;;;;;;;;5042302;28;20786;-64
2022/06/23 07:12:16;;;;;;;4.10;3.30;;;;;;;;;;5048035;28;20943;-64
2022/06/23 07:14:47;;;;;;;5.05;3.65;;;;;;;;;;5036747;28;20444;-64
2022/06/23 07:17:17;;;;;;;5.85;3.78;;;;;;;;;;5042016;28;20433;-64
2022/06/23 07:19:46;;;;;;;4.53;3.50;;;;;;;;;;5040459;28;20451;-64
2022/06/23 07:22:17;;;;;;;5.53;3.63;;;;;;;;;;5041529;28;20964;-64
2022/06/23 07:24:49;;;;;;;4.50;3.30;;;;;;;;;;5043037;28;20419;-64
2022/06/23 07:27:24;;;;;;;6.38;3.80;;;;;;;;;;5042532;28;20429;-64
2022/06/23 07:29:54;;;;;;;4.22;3.60;;;;;;;;;;5040314;28;20494;-64
2022/06/23 07:32:27;;;;;;;4.65;3.50;;;;;;;;;;5046089;28;20429;-64
2022/06/23 07:34:55;;;;;;;5.30;3.40;;;;;;;;;;5045999;28;20433;-64
2022/06/23 07:37:27;;;;;;;5.35;3.58;;;;;;;;;;5044839;28;20443;-64
2022/06/23 07:39:58;;;;;;;3.90;3.50;;;;;;;;;;5045760;28;20911;-64
2022/06/23 07:42:37;;;;;;;5.55;3.40;;;;;;;;;;5046882;28;20429;-64
2022/06/23 07:45:07;;;;;;;9.18;3.92;;;;;;;;;;5044109;28;20804;-64
2022/06/23 07:47:34;;;;;;;3.75;3.42;;;;;;;;;;5045007;28;20437;-64
2022/06/23 07:50:02;;;;;;;4.83;3.90;;;;;;;;;;5044704;28;20506;-64
2022/06/23 07:52:30;;;;;;;4.18;3.60;;;;;;;;;;5045997;28;20436;-64
2022/06/23 07:54:57;;;;;;;4.30;3.90;;;;;;;;;;5046374;28;20516;-64
2022/06/23 07:57:25;;;;;;;5.75;3.67;;;;;;;;;;5041076;28;20785;-64
2022/06/23 07:59:58;;;;;;;6.83;3.60;;;;;;;;;;5040823;28;20445;-64
2022/06/23 08:02:27;;;;;;;5.63;3.80;;;;;;;;;;5043117;28;20459;-64
2022/06/23 08:04:57;;;;;;;5.53;3.50;;;;;;;;;;5047064;28;20436;-64
2022/06/23 08:07:24;;;;;;;4.35;3.60;;;;;;;;;;5038121;28;20432;-64
2022/06/23 08:09:53;;;;;;;5.68;3.80;;;;;;;;;;5041378;28;20460;-64
2022/06/23 08:18:01;;;;;;;4.32;3.30;;;;;;;;;;5044264;28;20506;-64
2022/06/23 08:20:31;;;;;;;4.23;3.63;;;;;;;;;;5041221;28;20436;-64
2022/06/23 08:23:00;;;;;;;4.82;3.38;;;;;;;;;;5043218;28;20950;-65
2022/06/23 08:25:28;;;;;;;5.03;3.70;;;;;;;;;;5043834;28;20425;-64
2022/06/23 08:27:56;;;;;;;3.85;3.45;;;;;;;;;;5046214;28;20429;-65
2022/06/23 08:30:26;;;;;;;6.57;3.50;;;;;;;;;;5040185;28;20502;-64
2022/06/23 08:32:54;;;;;;;6.55;3.70;;;;;;;;;;5043906;28;21072;-64
2022/06/23 08:35:24;;;;;;;4.88;3.80;;;;;;;;;;5043415;28;20980;-64
2022/06/23 08:37:54;;;;;;;4.50;3.33;;;;;;;;;;5044665;28;20452;-64
2022/06/23 08:40:24;;;;;;;4.77;3.70;;;;;;;;;;5040864;28;20435;-64
2022/06/23 08:42:53;;;;;;;4.55;3.40;;;;;;;;;;5043843;28;20422;-64
2022/06/23 08:45:23;;;;;;;4.50;3.90;;;;;;;;;;5043318;28;20942;-66
2022/06/23 08:47:55;;;;;;;4.57;3.60;;;;;;;;;;5046203;28;20421;-64
2022/06/23 08:50:25;;;;;;;4.07;3.67;;;;;;;;;;5039585;28;20436;-65
2022/06/23 08:52:57;;;;;;;4.47;3.58;;;;;;;;;;5044712;28;20425;-74
2022/06/23 08:55:27;;;;;;;4.28;3.70;;;;;;;;;;5045485;28;20436;-75
2022/06/23 08:57:57;;;;;;;3.30;3.00;;;;;;;;;;5047309;28;20464;-74
2022/06/23 09:00:30;;;;;;;3.60;3.30;;;;;;;;;;5044270;28;20432;-72
2022/06/23 09:03:02;;;;;;;3.90;3.28;;;;;;;;;;5046656;28;20429;-63
2022/06/23 09:05:33;;;;;;;3.80;3.40;;;;;;;;;;5048205;28;20421;-74
2022/06/23 09:08:03;;;;;;;3.20;3.00;;;;;;;;;;5042942;28;21105;-73
2022/06/23 09:10:34;;;;;;;4.00;3.03;;;;;;;;;;5048069;28;20437;-74
2022/06/23 09:13:04;;;;;;;3.92;3.10;;;;;;;;;;5049815;28;20445;-74
2022/06/23 09:15:45;;;;;;;3.72;3.15;;;;;;;;;;5040085;28;20435;-74
2022/06/23 09:18:36;;;;;;;3.40;3.10;;;;;;;;;;5046149;28;20437;-74
2022/06/23 09:21:11;;;;;;;4.40;3.30;;;;;;;;;;5042235;28;20948;-74
2022/06/23 09:23:51;;;;;;;4.10;3.50;;;;;;;;;;5043973;28;20491;-75
2022/06/23 09:26:24;;;;;;;3.40;3.10;;;;;;;;;;5046807;28;20433;-74
2022/06/23 09:28:53;;;;;;;3.90;3.38;;;;;;;;;;5045916;28;20433;-75
2022/06/23 09:31:22;;;;;;;4.13;3.42;;;;;;;;;;5048855;28;20429;-74
2022/06/23 09:34:00;;;;;;;3.50;3.20;;;;;;;;;;5047649;28;20423;-74
2022/06/23 09:36:39;;;;;;;3.83;3.40;;;;;;;;;;5045240;28;20429;-74
2022/06/23 09:39:13;;;;;;;4.25;3.20;;;;;;;;;;5047396;28;20450;-75
2022/06/23 09:41:49;;;;;;;3.03;2.78;;;;;;;;;;5040649;28;20425;-74
2022/06/23 09:44:32;;;;;;;3.40;3.20;;;;;;;;;;5044576;28;20438;-75
2022/06/23 09:47:18;;;;;;;3.28;2.97;;;;;;;;;;5036600;28;20440;-76
2022/06/23 09:49:58;;;;;;;3.70;3.35;;;;;;;;;;5038880;28;20417;-75
2022/06/23 09:52:37;;;;;;;4.07;3.33;;;;;;;;;;5047354;28;20433;-74
2022/06/23 09:55:28;;;;;;;4.03;3.35;;;;;;;;;;5048992;28;20428;-74
2022/06/23 09:58:17;;;;;;;3.85;3.20;;;;;;;;;;4989897;28;20445;-75
2022/06/23 10:00:51;;;;;;;3.80;3.40;;;;;;;;;;5046099;28;21069;-74
2022/06/23 10:03:29;;;;;;;3.40;3.10;;;;;;;;;;5044069;28;20536;-74
2022/06/23 10:06:12;;;;;;;3.63;3.20;;;;;;;;;;5048422;28;20452;-74
2022/06/23 10:08:46;;;;;;;3.95;3.30;;;;;;;;;;5046056;28;20433;-73
2022/06/23 10:11:31;;;;;;;3.30;3.10;;;;;;;;;;5044407;28;20807;-75
2022/06/23 10:14:05;;;;;;;3.10;2.90;;;;;;;;;;5042666;28;20429;-74
2022/06/23 10:16:40;;;;;;;3.80;3.30;;;;;;;;;;5045505;28;20433;-74
2022/06/23 10:19:18;;;;;;;4.95;3.50;;;;;;;;;;5045832;28;20437;-74
2022/06/23 10:21:52;;;;;;;3.20;2.90;;;;;;;;;;5048471;28;20503;-74
2022/06/23 10:24:25;;;;;;;5.20;3.60;;;;;;;;;;5041643;28;20437;-74
2022/06/23 10:27:05;;;;;;;3.60;3.30;;;;;;;;;;5047330;28;20413;-74
2022/06/23 10:29:55;;;;;;;3.97;3.20;;;;;;;;;;5051571;28;20436;-74
2022/06/23 10:32:31;;;;;;;4.60;3.40;;;;;;;;;;5046421;28;20854;-63
2022/06/23 10:35:09;;;;;;;4.70;3.17;;;;;;;;;;5045562;28;20941;-66
2022/06/23 10:38:03;;;;;;;4.00;3.10;;;;;;;;;;5040954;28;20421;-71
2022/06/23 10:40:45;;;;;;;3.30;3.00;;;;;;;;;;5041569;28;20437;-68
2022/06/23 10:43:30;;;;;;;3.17;2.90;;;;;;;;;;5043630;28;20429;-68
2022/06/23 10:46:02;;;;;;;3.35;3.15;;;;;;;;;;5047474;28;20429;-69
2022/06/23 10:48:39;;;;;;;3.38;3.08;;;;;;;;;;5048112;28;21104;-69
2022/06/23 10:51:17;;;;;;;3.30;3.00;;;;;;;;;;5047232;28;20512;-68
2022/06/23 10:54:02;;;;;;;3.08;2.80;;;;;;;;;;5046018;28;20441;-68
2022/06/23 10:56:44;;;;;;;3.85;3.10;;;;;;;;;;5043342;28;20417;-68
2022/06/23 10:59:21;;;;;;;3.10;2.80;;;;;;;;;;5039314;28;20443;-68
2022/06/23 11:01:59;;;;;;;4.38;3.22;;;;;;;;;;5044224;28;20429;-68
2022/06/23 11:04:49;;;;;;;5.13;3.15;;;;;;;;;;5046625;28;20472;-67
2022/06/23 11:07:28;;;;;;;3.50;3.20;;;;;;;;;;5038829;28;20799;-67
2022/06/23 11:10:02;;;;;;;3.17;2.80;;;;;;;;;;5046828;28;20421;-67
2022/06/23 11:12:34;;;;;;;3.30;3.00;;;;;;;;;;5046056;28;20432;-67
2022/06/23 11:15:09;;;;;;;4.90;2.90;;;;;;;;;;5044667;28;20439;-67
2022/06/23 11:17:43;;;;;;;3.75;2.88;;;;;;;;;;5045382;28;20430;-68
2022/06/23 11:20:16;;;;;;;3.30;3.00;;;;;;;;;;5042533;28;20427;-67
2022/06/23 11:22:46;;;;;;;3.67;3.20;;;;;;;;;;5037445;28;20517;-68
2022/06/23 11:25:24;;;;;;;3.70;3.08;;;;;;;;;;5044901;28;20436;-67
2022/06/23 11:27:55;;;;;;;3.30;3.00;;;;;;;;;;5043565;28;20436;-68
2022/06/23 11:30:23;;;;;;;3.30;3.00;;;;;;;;;;5044131;28;20463;-68
2022/06/23 11:32:55;;;;;;;3.00;2.80;;;;;;;;;;5044762;28;20433;-68
2022/06/23 11:35:28;;;;;;;3.30;3.00;;;;;;;;;;5039188;28;21045;-67
2022/06/23 11:38:03;;;;;;;3.25;2.80;;;;;;;;;;5042271;28;20434;-67
2022/06/23 11:40:40;;;;;;;2.90;2.70;;;;;;;;;;5038388;28;20435;-71
2022/06/23 11:43:15;;;;;;;3.35;3.05;;;;;;;;;;5045569;28;20451;-70
2022/06/23 11:45:52;;;;;;;3.10;2.80;;;;;;;;;;5047338;28;20421;-70
2022/06/23 11:48:25;;;;;;;3.00;2.70;;;;;;;;;;5043353;28;20512;-70
2022/06/23 11:51:00;;;;;;;3.00;2.80;;;;;;;;;;5043667;28;20771;-72
2022/06/23 11:53:36;;;;;;;3.53;2.72;;;;;;;;;;5041361;28;20466;-71
2022/06/23 11:56:09;;;;;;;3.00;2.80;;;;;;;;;;5043032;28;20571;-70
2022/06/23 11:58:48;;;;;;;3.30;2.95;;;;;;;;;;5044037;28;20926;-72
2022/06/23 12:01:17;;;;;;;3.85;2.60;;;;;;;;;;5039146;28;20545;-70
2022/06/23 12:04:05;;;;;;;2.90;2.70;;;;;;;;;;5046034;28;20436;-70
2022/06/23 12:06:36;;;;;;;4.18;2.80;;;;;;;;;;5038367;28;20432;-70
2022/06/23 12:09:08;;;;;;;3.40;2.87;;;;;;;;;;5044528;28;20930;-70
2022/06/23 12:11:38;;;;;;;3.35;3.05;;;;;;;;;;5043272;28;20795;-70
2022/06/23 12:14:07;;;;;;;3.00;2.70;;;;;;;;;;5045770;28;20482;-70
2022/06/23 12:16:38;;;;;;;2.80;2.60;;;;;;;;;;5045786;28;20978;-70
2022/06/23 12:19:06;;;;;;;2.70;2.50;;;;;;;;;;5043975;28;20443;-70
2022/06/23 12:21:36;;;;;;;3.70;2.47;;;;;;;;;;5046483;28;20890;-70
2022/06/23 12:24:08;;;;;;;3.10;2.45;;;;;;;;;;5043626;28;20435;-71
2022/06/23 12:26:39;;;;;;;3.00;2.63;;;;;;;;;;5045496;28;20432;-70
2022/06/23 12:29:10;;;;;;;3.42;2.80;;;;;;;;;;5049675;28;20473;-70
2022/06/23 12:31:39;;;;;;;3.43;2.70;;;;;;;;;;5045658;28;20442;-70
2022/06/23 12:34:12;;;;;;;3.35;2.53;;;;;;;;;;5050501;28;20447;-71
2022/06/23 12:36:43;;;;;;;3.45;2.60;;;;;;;;;;5043725;28;20508;-70
2022/06/23 12:39:13;;;;;;;3.40;2.60;;;;;;;;;;5048444;28;20429;-70
2022/06/23 12:41:46;;;;;;;4.40;2.80;;;;;;;;;;5050844;28;20413;-71
2022/06/23 12:44:21;;;;;;;2.90;2.60;;;;;;;;;;5046536;28;20437;-71
2022/06/23 12:46:53;;;;;;;3.73;2.77;;;;;;;;;;5048920;28;20433;-71
2022/06/23 12:49:29;;;;;;;2.80;2.60;;;;;;;;;;5041803;28;20516;-71
2022/06/23 12:52:05;;;;;;;3.60;2.70;;;;;;;;;;5047627;28;20961;-71
2022/06/23 12:54:38;;;;;;;3.00;2.73;;;;;;;;;;5044413;28;20430;-72
2022/06/23 12:57:14;;;;;;;2.72;2.50;;;;;;;;;;5045022;28;20474;-71
2022/06/23 12:59:43;;;;;;;3.70;2.87;;;;;;;;;;5048650;28;20927;-72
2022/06/23 13:02:16;;;;;;;2.85;2.65;;;;;;;;;;5045585;28;20446;-71
2022/06/23 13:04:46;;;;;;;3.20;2.40;;;;;;;;;;5045722;28;20409;-71
2022/06/23 13:07:16;;;;;;;2.80;2.53;;;;;;;;;;5046475;28;20425;-71
2022/06/23 13:09:45;;;;;;;5.10;2.88;;;;;;;;;;5045968;28;20441;-71
2022/06/23 13:12:15;;;;;;;4.15;2.80;;;;;;;;;;5048537;28;20443;-71
2022/06/23 13:14:46;;;;;;;3.35;2.47;;;;;;;;;;5045808;28;20430;-71
2022/06/23 13:17:21;;;;;;;3.22;2.70;;;;;;;;;;5043141;28;20429;-71
2022/06/23 13:19:53;;;;;;;2.80;2.50;;;;;;;;;;5044409;28;20478;-71
2022/06/23 13:22:20;;;;;;;3.50;2.90;;;;;;;;;;5046916;28;20436;-70
2022/06/23 13:24:47;;;;;;;3.90;2.60;;;;;;;;;;5046705;28;20429;-71
2022/06/23 13:27:19;;;;;;;2.97;2.10;;;;;;;;;;5046872;28;20436;-71
2022/06/23 13:29:51;;;;;;;3.20;2.30;;;;;;;;;;5044091;28;20437;-71
2022/06/23 13:32:22;;;;;;;3.27;2.70;;;;;;;;;;5043551;28;20413;-71
2022/06/23 13:34:53;;;;;;;2.72;2.53;;;;;;;;;;5044552;28;20938;-71
2022/06/23 13:37:22;;;;;;;4.30;2.90;;;;;;;;;;5040289;28;20436;-71
2022/06/23 13:39:53;;;;;;;3.37;2.60;;;;;;;;;;5044429;28;20780;-71
2022/06/23 13:42:25;;;;;;;3.38;3.08;;;;;;;;;;5041966;28;20435;-71
2022/06/23 13:44:57;;;;;;;2.93;2.43;;;;;;;;;;5047257;28;20429;-71
2022/06/23 13:47:26;;;;;;;2.88;2.50;;;;;;;;;;5042962;28;20438;-71
2022/06/23 13:49:56;;;;;;;3.67;2.47;;;;;;;;;;5048775;28;20420;-72
2022/06/23 13:52:26;;;;;;;3.20;2.90;;;;;;;;;;5045959;28;20447;-72
2022/06/23 13:54:57;;;;;;;3.60;2.50;;;;;;;;;;5047927;28;20500;-72
2022/06/23 13:57:28;;;;;;;3.20;2.70;;;;;;;;;;5045150;28;20481;-72
2022/06/23 14:00:01;;;;;;;2.88;2.47;;;;;;;;;;5047211;28;20437;-74
2022/06/23 14:02:32;;;;;;;3.35;2.55;;;;;;;;;;5047787;28;20465;-72
2022/06/23 14:05:03;;;;;;;2.60;2.40;;;;;;;;;;5043794;28;20986;-73
2022/06/23 14:07:35;;;;;;;3.90;2.55;;;;;;;;;;5048329;28;20514;-72
2022/06/23 14:10:04;;;;;;;3.90;2.60;;;;;;;;;;5046265;28;20437;-73
2022/06/23 14:12:37;;;;;;;3.30;2.80;;;;;;;;;;5045004;28;20433;-71
2022/06/23 14:15:08;;;;;;;3.08;2.72;;;;;;;;;;5046086;28;20464;-71
2022/06/23 14:17:38;;;;;;;3.53;2.70;;;;;;;;;;5047025;28;20463;-72
2022/06/23 14:20:07;;;;;;;4.00;2.83;;;;;;;;;;5045797;28;20516;-72
2022/06/23 14:22:38;;;;;;;3.20;3.00;;;;;;;;;;5045444;28;20477;-72
2022/06/23 14:25:08;;;;;;;3.70;3.20;;;;;;;;;;5047086;28;20448;-71
2022/06/23 14:27:47;;;;;;;3.40;3.10;;;;;;;;;;5050227;28;20454;-71
2022/06/23 14:30:16;;;;;;;3.30;3.00;;;;;;;;;;5048288;28;20437;-72
2022/06/23 14:32:47;;;;;;;3.70;3.40;;;;;;;;;;5049518;28;20497;-72
2022/06/23 14:35:18;;;;;;;3.70;3.20;;;;;;;;;;5048837;28;20467;-72
2022/06/23 14:37:50;;;;;;;3.38;3.08;;;;;;;;;;5047914;28;20461;-71
2022/06/23 14:40:19;;;;;;;4.27;2.97;;;;;;;;;;5047872;28;20473;-72
2022/06/23 14:42:55;;;;;;;3.25;2.95;;;;;;;;;;5048074;28;20466;-72
2022/06/23 14:45:40;;;;;;;4.87;3.33;;;;;;;;;;5036729;28;20462;-72
2022/06/23 14:48:14;;;;;;;3.23;2.93;;;;;;;;;;5045103;28;20428;-70
2022/06/23 14:50:44;;;;;;;4.18;3.38;;;;;;;;;;5047240;28;20420;-71
2022/06/23 14:53:19;;;;;;;3.75;3.00;;;;;;;;;;5043487;28;20429;-70
2022/06/23 14:55:53;;;;;;;3.38;3.08;;;;;;;;;;5045302;28;20441;-72
2022/06/23 14:58:23;;;;;;;3.93;3.53;;;;;;;;;;5045266;28;20953;-69
2022/06/23 15:00:57;;;;;;;3.80;3.50;;;;;;;;;;5045479;28;20826;-70
2022/06/23 15:03:33;;;;;;;4.38;3.65;;;;;;;;;;5039086;28;20429;-69
2022/06/23 15:06:04;;;;;;;4.32;3.50;;;;;;;;;;5044604;28;20491;-70
2022/06/23 15:08:36;;;;;;;4.20;3.80;;;;;;;;;;5041028;28;20413;-70
2022/06/23 15:11:06;;;;;;;3.70;3.40;;;;;;;;;;5045946;28;20938;-70
2022/06/23 15:13:39;;;;;;;4.25;3.85;;;;;;;;;;5047899;28;20420;-70
2022/06/23 15:16:11;;;;;;;3.53;3.10;;;;;;;;;;5044425;28;20451;-70
2022/06/23 15:18:44;;;;;;;3.97;3.67;;;;;;;;;;5046453;28;20437;-70
2022/06/23 15:23:58;;;;;;;4.30;3.10;;;;;;;;;;5041825;28;20451;-71